createdAt,value
2022-11-04T00:02:17.265Z,68.20
2022-11-04T00:04:51.169Z,68.20
2022-11-04T00:07:56.165Z,68.20
2022-11-04T00:10:43.209Z,68.30
2022-11-04T00:13:17.154Z,68.40
2022-11-04T00:16:09.163Z,68.40
2022-11-04T00:18:43.148Z,68.40
2022-11-04T00:21:28.851Z,68.40
2022-11-04T00:24:21.275Z,68.40
2022-11-04T00:27:09.040Z,68.40
2022-11-04T00:29:43.185Z,68.40
2022-11-04T00:32:29.344Z,68.40
2022-11-04T00:35:03.218Z,68.60
2022-11-04T00:37:37.184Z,68.60
2022-11-04T00:40:04.694Z,68.70
2022-11-04T00:42:38.134Z,68.70
2022-11-04T00:45:06.091Z,68.60
2022-11-04T00:47:40.180Z,68.60
2022-11-04T00:50:08.290Z,68.70
2022-11-04T00:52:42.205Z,68.60
2022-11-04T00:55:09.559Z,68.70
2022-11-04T00:57:36.735Z,68.60
2022-11-04T01:00:11.195Z,68.60
2022-11-04T01:02:38.328Z,68.80
2022-11-04T01:05:12.249Z,68.80
2022-11-04T01:07:52.244Z,68.80
2022-11-04T01:10:19.433Z,68.80
2022-11-04T01:12:53.164Z,68.90
2022-11-04T01:15:20.304Z,69.00
2022-11-04T01:17:54.266Z,69.00
2022-11-04T01:20:21.499Z,69.10
2022-11-04T01:22:55.249Z,69.20
2022-11-04T01:25:22.309Z,69.40
2022-11-04T01:27:56.218Z,69.50
2022-11-04T01:30:30.228Z,69.50
2022-11-04T01:32:57.280Z,69.60
2022-11-04T01:35:31.269Z,69.70
2022-11-04T01:38:01.588Z,69.70
2022-11-04T01:40:35.189Z,69.80
2022-11-04T01:43:02.280Z,69.90
2022-11-04T01:45:29.470Z,70.10
2022-11-04T01:48:29.193Z,70.10
2022-11-04T01:51:03.181Z,70.10
2022-11-04T01:53:40.195Z,70.30
2022-11-04T01:56:21.305Z,70.40
2022-11-04T01:58:59.210Z,70.60
2022-11-04T02:01:33.334Z,70.70
2022-11-04T02:04:20.299Z,70.70
2022-11-04T02:06:55.178Z,70.60
2022-11-04T02:09:38.202Z,70.60
2022-11-04T02:12:24.367Z,70.60
2022-11-04T02:14:59.195Z,70.80
2022-11-04T02:17:38.258Z,70.90
2022-11-04T02:20:24.251Z,70.90
2022-11-04T02:23:17.213Z,70.80
2022-11-04T02:26:21.205Z,70.80
2022-11-04T02:29:17.221Z,70.70
2022-11-04T02:31:58.884Z,70.90
2022-11-04T02:34:37.233Z,71.00
2022-11-04T02:37:28.954Z,71.20
2022-11-04T02:40:23.258Z,71.30
2022-11-04T02:43:32.214Z,71.50
2022-11-04T02:46:20.178Z,71.60
2022-11-04T02:48:59.911Z,71.80
2022-11-04T02:51:42.263Z,71.90
2022-11-04T02:54:18.608Z,72.00
2022-11-04T02:56:57.241Z,72.10
2022-11-04T02:59:50.262Z,72.20
2022-11-04T03:02:29.282Z,72.30
2022-11-04T03:04:58.608Z,72.30
2022-11-04T03:07:48.264Z,72.40
2022-11-04T03:10:24.359Z,72.50
2022-11-04T03:13:32.238Z,72.70
2022-11-04T03:16:09.238Z,72.80
2022-11-04T03:18:51.260Z,72.80
2022-11-04T03:21:20.999Z,72.90
2022-11-04T03:23:54.184Z,72.90
2022-11-04T03:26:47.246Z,72.90
2022-11-04T03:29:37.881Z,72.90
2022-11-04T03:32:16.193Z,72.90
2022-11-04T03:34:43.559Z,72.90
2022-11-04T03:37:17.222Z,73.00
2022-11-04T03:39:44.514Z,73.10
2022-11-04T03:42:27.223Z,73.30
2022-11-04T03:44:56.719Z,73.30
2022-11-04T03:47:33.324Z,73.50
2022-11-04T03:50:16.237Z,73.80
2022-11-04T03:52:50.214Z,73.90
2022-11-04T03:55:17.435Z,74.00
2022-11-04T03:58:01.219Z,74.10
2022-11-04T04:00:43.589Z,74.30
2022-11-04T04:03:25.233Z,74.50
2022-11-04T04:05:57.138Z,74.70
2022-11-04T04:09:00.251Z,75.00
2022-11-04T04:12:11.246Z,75.30
2022-11-04T04:14:46.789Z,75.60
2022-11-04T04:17:39.228Z,75.90
2022-11-04T04:20:29.310Z,76.10
2022-11-04T04:23:03.448Z,76.30
2022-11-04T04:25:58.268Z,76.50
2022-11-04T04:28:32.194Z,76.70
2022-11-04T04:31:06.234Z,77.00
2022-11-04T04:33:35.895Z,77.00
2022-11-04T04:36:10.267Z,77.40
2022-11-04T04:39:00.511Z,77.60
2022-11-04T04:41:55.208Z,77.80
2022-11-04T04:44:49.236Z,78.00
2022-11-04T04:47:30.254Z,78.20
2022-11-04T04:49:59.508Z,78.30
2022-11-04T04:52:37.249Z,78.40
2022-11-04T04:55:11.290Z,78.60
2022-11-04T04:57:45.554Z,78.80
2022-11-04T05:00:23.219Z,78.90
2022-11-04T05:02:57.238Z,79.00
2022-11-04T05:05:24.574Z,79.10
2022-11-04T05:08:16.064Z,79.20
2022-11-04T05:10:49.464Z,79.10
2022-11-04T05:13:37.227Z,79.20
2022-11-04T05:16:07.393Z,79.40
2022-11-04T05:18:42.261Z,79.60
2022-11-04T05:21:13.138Z,79.70
2022-11-04T05:23:47.243Z,79.70
2022-11-04T05:26:15.523Z,79.60
2022-11-04T05:28:49.235Z,79.60
2022-11-04T05:31:25.287Z,79.80
2022-11-04T05:33:53.795Z,79.80
2022-11-04T05:36:27.329Z,79.90
2022-11-04T05:38:57.914Z,79.90
2022-11-04T05:41:35.315Z,79.90
2022-11-04T05:44:04.087Z,79.90
2022-11-04T05:46:38.305Z,79.90
2022-11-04T05:49:05.858Z,80.00
2022-11-04T05:51:40.319Z,80.10
2022-11-04T05:54:07.417Z,79.90
2022-11-04T05:56:41.276Z,79.90
2022-11-04T05:59:15.256Z,79.90
2022-11-04T06:01:44.380Z,79.90
2022-11-04T06:04:23.248Z,79.90
2022-11-04T06:06:59.271Z,79.80
2022-11-04T06:09:39.634Z,79.70
2022-11-04T06:12:14.255Z,79.60
2022-11-04T06:14:42.609Z,79.70
2022-11-04T06:17:23.298Z,79.70
2022-11-04T06:19:50.840Z,79.60
2022-11-04T06:22:26.216Z,79.70
2022-11-04T06:24:53.259Z,79.70
2022-11-04T06:27:27.223Z,79.80
2022-11-04T06:30:01.367Z,79.70
2022-11-04T06:32:35.227Z,79.70
2022-11-04T06:35:09.303Z,79.60
2022-11-04T06:37:37.980Z,79.60
2022-11-04T06:40:12.211Z,79.50
2022-11-04T06:42:46.247Z,79.50
2022-11-04T06:45:13.362Z,79.50
2022-11-04T06:47:47.322Z,79.30
2022-11-04T06:50:14.879Z,79.30
2022-11-04T06:52:48.264Z,79.30
2022-11-04T06:55:15.462Z,79.20
2022-11-04T06:57:49.311Z,79.00
2022-11-04T07:00:17.036Z,78.90
2022-11-04T07:02:50.332Z,78.80
2022-11-04T07:05:17.829Z,79.00
2022-11-04T07:07:58.341Z,79.10
2022-11-04T07:10:32.165Z,79.30
2022-11-04T07:13:06.264Z,79.20
2022-11-04T07:15:33.573Z,79.30
2022-11-04T07:18:07.557Z,79.40
2022-11-04T07:20:37.018Z,79.30
2022-11-04T07:23:11.262Z,79.30
2022-11-04T07:25:40.941Z,79.30
2022-11-04T07:28:14.262Z,79.10
2022-11-04T07:30:41.451Z,79.10
2022-11-04T07:33:15.275Z,79.10
2022-11-04T07:35:42.367Z,79.20
2022-11-04T07:38:16.300Z,79.30
2022-11-04T07:40:50.359Z,79.50
2022-11-04T07:43:17.619Z,79.50
2022-11-04T07:45:51.273Z,79.60
2022-11-04T07:48:18.712Z,79.40
2022-11-04T07:50:52.279Z,79.40
2022-11-04T07:53:19.371Z,79.50
2022-11-04T07:55:57.330Z,79.50
2022-11-04T07:58:26.183Z,79.60
2022-11-04T08:01:08.329Z,79.60
2022-11-04T08:03:37.081Z,79.50
2022-11-04T08:06:13.309Z,79.50
2022-11-04T08:08:48.499Z,79.50
2022-11-04T08:11:26.279Z,79.60
2022-11-04T08:14:00.310Z,79.50
2022-11-04T08:16:34.717Z,79.30
2022-11-04T08:19:02.747Z,79.50
2022-11-04T08:21:38.346Z,79.50
2022-11-04T08:24:06.224Z,79.70
2022-11-04T08:26:40.290Z,79.70
2022-11-04T08:29:08.946Z,79.70
2022-11-04T08:31:44.327Z,79.80
2022-11-04T08:34:11.444Z,80.00
2022-11-04T08:36:47.267Z,80.00
2022-11-04T08:39:21.308Z,79.80
2022-11-04T08:41:57.224Z,80.00
2022-11-04T08:44:24.710Z,79.90
2022-11-04T08:46:58.292Z,80.00
2022-11-04T08:49:25.483Z,80.10
2022-11-04T08:52:07.270Z,80.10
2022-11-04T08:54:34.432Z,80.30
2022-11-04T08:57:08.337Z,80.60
2022-11-04T08:59:36.600Z,80.70
2022-11-04T09:02:10.321Z,80.80
2022-11-04T09:04:40.097Z,80.80
2022-11-04T09:07:20.296Z,80.80
2022-11-04T09:09:54.375Z,80.90
2022-11-04T09:12:28.327Z,81.00
2022-11-04T09:14:55.513Z,81.10
2022-11-04T09:17:29.313Z,81.30
2022-11-04T09:19:57.313Z,81.50
2022-11-04T09:22:31.253Z,81.60
2022-11-04T09:24:59.123Z,81.60
2022-11-04T09:27:32.255Z,81.80
2022-11-04T09:29:59.313Z,81.80
2022-11-04T09:32:33.289Z,81.90
2022-11-04T09:35:00.633Z,82.10
2022-11-04T09:37:34.301Z,82.20
2022-11-04T09:40:01.469Z,82.30
2022-11-04T09:42:50.467Z,82.40
2022-11-04T09:45:22.500Z,82.20
2022-11-04T09:47:59.332Z,82.30
2022-11-04T09:50:51.818Z,82.40
2022-11-04T09:53:35.278Z,82.50
2022-11-04T09:56:18.748Z,82.70
2022-11-04T09:58:53.334Z,82.70
2022-11-04T10:01:33.971Z,82.80
2022-11-04T10:04:19.320Z,82.60
2022-11-04T10:07:34.277Z,82.50
2022-11-04T10:10:22.337Z,82.60
2022-11-04T10:13:04.884Z,82.30
2022-11-04T10:16:00.358Z,82.20
2022-11-04T10:18:46.970Z,82.50
2022-11-04T10:21:39.296Z,82.90
2022-11-04T10:24:06.342Z,83.10
2022-11-04T10:27:01.136Z,83.10
2022-11-04T10:29:56.070Z,83.30
2022-11-04T10:32:50.321Z,83.20
2022-11-04T10:35:38.424Z,83.40
2022-11-04T10:38:43.422Z,83.50
2022-11-04T10:41:39.310Z,83.20
2022-11-04T10:44:06.191Z,83.00
2022-11-04T10:46:58.285Z,82.90
2022-11-04T10:49:50.570Z,82.90
2022-11-04T10:52:35.290Z,82.90
2022-11-04T10:55:02.465Z,83.30
2022-11-04T10:57:37.367Z,83.50
2022-11-04T11:00:06.031Z,83.40
2022-11-04T11:02:48.364Z,83.50
2022-11-04T11:05:32.347Z,83.10
2022-11-04T11:08:06.360Z,83.00
2022-11-04T11:10:35.075Z,82.90
2022-11-04T11:13:14.411Z,82.90
2022-11-04T11:15:42.637Z,83.00
2022-11-04T11:18:25.310Z,82.90
2022-11-04T11:21:08.122Z,83.10
2022-11-04T11:23:46.306Z,83.30
2022-11-04T11:26:31.511Z,83.20
2022-11-04T11:29:10.341Z,83.40
2022-11-04T11:31:40.531Z,83.40
2022-11-04T11:34:30.310Z,83.40
2022-11-04T11:37:06.335Z,83.20
2022-11-04T11:39:42.356Z,83.10
2022-11-04T11:42:23.364Z,83.00
2022-11-04T11:45:02.336Z,82.90
2022-11-04T11:47:29.384Z,83.50
2022-11-04T11:50:25.470Z,87.30
2022-11-04T11:52:53.219Z,88.00
2022-11-04T11:55:39.361Z,85.80
2022-11-04T12:01:53.645Z,84.50
2022-11-04T12:10:59.291Z,80.10
2022-11-04T12:13:30.513Z,79.90
2022-11-04T12:16:23.396Z,80.50
2022-11-04T12:18:53.591Z,80.90
2022-11-04T12:21:43.295Z,81.20
2022-11-04T12:24:41.505Z,81.40
2022-11-04T12:27:24.461Z,81.00
2022-11-04T12:30:13.568Z,81.30
2022-11-04T12:33:02.112Z,81.30
2022-11-04T12:35:53.336Z,81.50
2022-11-04T12:38:39.309Z,81.90
2022-11-04T12:42:14.309Z,81.80
2022-11-04T12:44:26.447Z,81.80
2022-11-04T12:47:06.360Z,81.80
2022-11-04T12:49:58.287Z,82.10
2022-11-04T12:52:35.336Z,82.30
2022-11-04T12:55:24.372Z,82.30
2022-11-04T12:58:21.460Z,82.40
2022-11-04T13:01:20.417Z,82.50
2022-11-04T13:04:03.010Z,82.80
2022-11-04T13:06:47.389Z,82.90
2022-11-04T13:09:50.377Z,83.10
2022-11-04T13:12:24.336Z,83.00
2022-11-04T13:15:11.665Z,83.00
2022-11-04T13:17:48.322Z,83.00
2022-11-04T13:20:31.135Z,82.80
2022-11-04T13:23:09.570Z,82.90
2022-11-04T13:25:48.167Z,82.80
2022-11-04T13:28:26.429Z,82.60
2022-11-04T13:31:02.896Z,81.90
2022-11-04T13:33:47.355Z,82.20
2022-11-04T13:36:56.594Z,81.50
2022-11-04T13:39:36.342Z,81.50
2022-11-04T13:42:30.575Z,81.60
2022-11-04T13:45:10.385Z,81.70
2022-11-04T13:47:53.555Z,81.70
2022-11-04T13:50:36.452Z,81.90
2022-11-04T13:53:06.143Z,82.00
2022-11-04T13:55:35.698Z,82.20
2022-11-04T13:58:12.381Z,82.00
2022-11-04T14:00:40.275Z,82.20
2022-11-04T14:03:34.364Z,82.00
2022-11-04T14:06:02.275Z,82.50
2022-11-04T14:08:43.314Z,82.30
2022-11-04T14:11:17.150Z,82.10
2022-11-04T14:13:52.366Z,82.60
2022-11-04T14:16:25.316Z,82.90
2022-11-04T14:19:01.385Z,83.10
2022-11-04T14:21:29.644Z,82.90
2022-11-04T14:24:11.997Z,82.80
2022-11-04T14:26:45.638Z,82.10
2022-11-04T14:29:31.431Z,82.10
2022-11-04T14:32:01.917Z,82.50
2022-11-04T14:34:40.399Z,82.80
2022-11-04T14:37:23.159Z,82.50
2022-11-04T14:40:05.440Z,82.40
2022-11-04T14:42:53.397Z,82.40
2022-11-04T14:45:45.385Z,82.40
2022-11-04T14:48:21.869Z,82.30
2022-11-04T14:51:00.399Z,82.00
2022-11-04T14:53:34.288Z,81.70
2022-11-04T14:56:13.376Z,81.50
2022-11-04T14:59:02.364Z,81.90
2022-11-04T15:01:35.265Z,82.00
2022-11-04T15:04:28.432Z,82.30
2022-11-04T15:07:11.339Z,82.10
2022-11-04T15:09:56.567Z,81.90
2022-11-04T15:12:49.374Z,81.50
2022-11-04T15:15:36.602Z,81.90
2022-11-04T15:18:14.355Z,82.10
2022-11-04T15:20:53.472Z,82.20
2022-11-04T15:23:41.383Z,82.20
2022-11-04T15:26:29.838Z,82.20
2022-11-04T15:29:10.322Z,82.30
2022-11-04T15:31:48.654Z,82.20
2022-11-04T15:34:25.363Z,82.40
2022-11-04T15:36:55.078Z,82.30
2022-11-04T15:39:32.353Z,82.10
2022-11-04T15:42:22.206Z,82.10
2022-11-04T15:45:03.415Z,81.90
2022-11-04T15:47:37.435Z,81.70
2022-11-04T15:50:32.632Z,81.80
2022-11-04T15:53:05.874Z,82.10
2022-11-04T15:55:44.456Z,82.10
2022-11-04T15:58:22.455Z,82.00
2022-11-04T16:01:03.599Z,81.80
2022-11-04T16:03:37.426Z,81.70
2022-11-04T16:06:14.393Z,81.40
2022-11-04T16:08:48.481Z,81.50
2022-11-04T16:11:28.572Z,81.50
2022-11-04T16:14:35.090Z,81.40
2022-11-04T16:17:09.536Z,81.60
2022-11-04T16:19:37.766Z,81.50
2022-11-04T16:22:17.470Z,81.60
2022-11-04T16:24:48.973Z,81.70
2022-11-04T16:27:28.366Z,81.40
2022-11-04T16:30:30.389Z,81.20
2022-11-04T16:33:10.725Z,81.50
2022-11-04T16:35:49.399Z,81.80
2022-11-04T16:38:16.566Z,81.60
2022-11-04T16:40:53.364Z,81.20
2022-11-04T16:43:22.160Z,81.30
2022-11-04T16:45:57.352Z,81.30
2022-11-04T16:48:25.019Z,81.40
2022-11-04T16:50:58.336Z,81.60
2022-11-04T16:53:25.439Z,81.50
2022-11-04T16:56:01.374Z,81.30
2022-11-04T16:58:35.379Z,81.20
2022-11-04T17:01:09.406Z,81.30
2022-11-04T17:03:36.550Z,81.20
2022-11-04T17:06:10.414Z,81.30
2022-11-04T17:08:51.400Z,81.20
2022-11-04T17:11:25.224Z,81.30
2022-11-04T17:13:58.362Z,81.30
2022-11-04T17:16:25.474Z,81.30
2022-11-04T17:18:59.399Z,81.10
2022-11-04T17:21:26.622Z,81.30
2022-11-04T17:24:03.443Z,81.20
2022-11-04T17:26:37.394Z,81.20
2022-11-04T17:29:04.514Z,81.10
2022-11-04T17:31:38.479Z,80.80
2022-11-04T17:34:06.264Z,81.00
2022-11-04T17:36:40.446Z,80.90
2022-11-04T17:39:14.467Z,80.90
2022-11-04T17:42:00.206Z,80.80
2022-11-04T17:44:34.470Z,80.70
2022-11-04T17:47:01.687Z,80.50
2022-11-04T17:49:35.485Z,80.50
2022-11-04T17:52:09.496Z,80.50
2022-11-04T17:54:43.475Z,80.50
2022-11-04T17:57:10.575Z,80.50
2022-11-04T17:59:44.515Z,80.40
2022-11-04T18:02:18.556Z,80.40
2022-11-04T18:04:53.430Z,80.50
2022-11-04T18:07:21.225Z,80.60
2022-11-04T18:10:01.417Z,80.60
2022-11-04T18:12:44.475Z,80.60
2022-11-04T18:15:20.570Z,80.50
2022-11-04T18:17:50.238Z,80.40
2022-11-04T18:20:24.495Z,80.30
2022-11-04T18:22:58.480Z,80.30
2022-11-04T18:25:25.705Z,80.00
2022-11-04T18:27:59.446Z,80.10
2022-11-04T18:30:26.935Z,80.20
2022-11-04T18:33:00.475Z,80.20
2022-11-04T18:35:27.546Z,80.10
2022-11-04T18:38:01.384Z,80.10
2022-11-04T18:40:28.480Z,80.10
2022-11-04T18:43:08.481Z,80.00
2022-11-04T18:45:43.503Z,80.00
2022-11-04T18:48:10.765Z,80.00
2022-11-04T18:50:44.390Z,79.80
2022-11-04T18:53:11.819Z,79.60
2022-11-04T18:55:45.367Z,79.50
2022-11-04T18:58:19.496Z,79.40
2022-11-04T19:00:46.695Z,79.50
2022-11-04T19:03:20.480Z,79.50
2022-11-04T19:05:47.667Z,79.50
2022-11-04T19:08:21.520Z,79.40
2022-11-04T19:11:01.088Z,79.50
2022-11-04T19:13:35.439Z,79.50
2022-11-04T19:16:08.140Z,79.50
2022-11-04T19:18:42.563Z,79.60
2022-11-04T19:21:12.287Z,79.50
2022-11-04T19:23:46.500Z,79.40
2022-11-04T19:26:19.715Z,79.40
2022-11-04T19:28:54.720Z,79.50
2022-11-04T19:31:25.492Z,79.30
2022-11-04T19:34:00.456Z,79.20
2022-11-04T19:36:27.680Z,79.20
2022-11-04T19:39:02.521Z,79.30
2022-11-04T19:41:54.450Z,79.10
2022-11-04T19:44:22.450Z,79.10
2022-11-04T19:46:57.461Z,78.90
2022-11-04T19:49:24.641Z,78.90
2022-11-04T19:51:51.860Z,78.80
2022-11-04T19:54:25.445Z,78.80
2022-11-04T19:56:53.262Z,78.80
2022-11-04T19:59:27.442Z,79.00
2022-11-04T20:01:54.792Z,79.00
2022-11-04T20:04:28.417Z,78.90
2022-11-04T20:06:55.443Z,78.90
2022-11-04T20:09:29.378Z,78.60
2022-11-04T20:12:28.410Z,78.50
2022-11-04T20:14:57.441Z,78.40
2022-11-04T20:17:31.416Z,78.30
2022-11-04T20:19:58.465Z,78.40
2022-11-04T20:22:25.616Z,78.20
2022-11-04T20:24:59.407Z,78.30
2022-11-04T20:27:33.450Z,78.40
2022-11-04T20:30:00.565Z,78.00
2022-11-04T20:32:34.385Z,78.10
2022-11-04T20:35:08.509Z,77.80
2022-11-04T20:37:35.792Z,77.80
2022-11-04T20:40:09.510Z,77.80
2022-11-04T20:42:36.836Z,77.90
2022-11-04T20:45:10.419Z,77.70
2022-11-04T20:47:37.524Z,77.80
2022-11-04T20:50:11.424Z,77.80
2022-11-04T20:52:38.714Z,77.80
2022-11-04T20:55:13.484Z,77.80
2022-11-04T20:57:40.698Z,77.70
2022-11-04T21:00:15.436Z,77.70
2022-11-04T21:02:45.293Z,77.70
2022-11-04T21:05:19.515Z,77.40
2022-11-04T21:07:46.687Z,77.40
2022-11-04T21:10:27.441Z,77.40
2022-11-04T21:12:54.605Z,77.50
2022-11-04T21:15:46.486Z,77.60
2022-11-04T21:18:20.502Z,77.60
2022-11-04T21:20:55.431Z,77.60
2022-11-04T21:23:23.108Z,77.40
2022-11-04T21:26:00.425Z,77.20
2022-11-04T21:28:27.520Z,77.20
2022-11-04T21:31:01.420Z,77.20
2022-11-04T21:33:35.427Z,77.20
2022-11-04T21:36:14.419Z,77.30
2022-11-04T21:38:48.472Z,77.10
2022-11-04T21:41:29.549Z,77.10
2022-11-04T21:43:57.983Z,77.20
2022-11-04T21:46:32.445Z,77.20
2022-11-04T21:49:00.988Z,77.20
2022-11-04T21:51:41.502Z,77.10
2022-11-04T21:54:15.499Z,77.00
2022-11-04T21:56:42.656Z,76.90
2022-11-04T21:59:18.624Z,77.10
2022-11-04T22:01:48.319Z,77.10
2022-11-04T22:04:22.376Z,77.10
2022-11-04T22:06:49.375Z,77.10
2022-11-04T22:09:29.398Z,77.20
2022-11-04T22:12:02.539Z,77.30
2022-11-04T22:14:37.384Z,77.20
2022-11-04T22:17:04.453Z,77.20
2022-11-04T22:19:38.558Z,77.20
2022-11-04T22:22:05.625Z,77.30
2022-11-04T22:24:39.413Z,77.30
2022-11-04T22:27:06.478Z,77.20
2022-11-04T22:29:40.462Z,77.20
2022-11-04T22:32:07.513Z,77.20
2022-11-04T22:34:41.640Z,77.10
2022-11-04T22:37:09.095Z,77.10
2022-11-04T22:39:42.417Z,77.10
2022-11-04T22:42:09.503Z,77.10
2022-11-04T22:44:39.276Z,77.00
2022-11-04T22:47:13.432Z,77.00
2022-11-04T22:49:40.516Z,77.00
2022-11-04T22:52:14.432Z,77.00
2022-11-04T22:54:41.507Z,77.10
2022-11-04T22:57:15.374Z,77.20
2022-11-04T22:59:42.441Z,77.40
2022-11-04T23:02:16.553Z,77.50
2022-11-04T23:04:45.311Z,77.50
2022-11-04T23:07:19.462Z,77.40
2022-11-04T23:10:24.415Z,77.30
2022-11-04T23:13:10.563Z,77.30
2022-11-04T23:16:06.428Z,77.10
2022-11-04T23:18:42.618Z,77.20
2022-11-04T23:21:44.437Z,77.20
2022-11-04T23:24:30.193Z,77.10
2022-11-04T23:27:04.451Z,77.10
2022-11-04T23:29:56.412Z,77.20
2022-11-04T23:32:30.423Z,77.20
2022-11-04T23:35:22.566Z,77.20
2022-11-04T23:37:49.656Z,77.40
2022-11-04T23:40:23.447Z,77.30
2022-11-04T23:42:57.465Z,77.30
2022-11-04T23:45:44.280Z,77.30
2022-11-04T23:48:37.446Z,77.30
2022-11-04T23:51:23.137Z,77.40
2022-11-04T23:54:15.466Z,77.50
2022-11-04T23:57:00.927Z,77.60
2022-11-04T23:59:52.405Z,77.60
